createdAt,value
2022-09-13T01:37:27.093Z,11
2022-09-13T01:45:27.371Z,12
2022-09-13T02:15:27.072Z,8
2022-09-13T02:22:27.042Z,10
2022-09-13T02:29:27.056Z,8
2022-09-13T02:38:27.042Z,9
2022-09-13T03:06:27.063Z,9
2022-09-13T03:10:27.039Z,8
2022-09-13T03:29:27.058Z,8
2022-09-13T03:41:27.134Z,11
2022-09-13T03:45:27.139Z,9
2022-09-13T04:08:27.041Z,10
2022-09-13T04:12:27.061Z,9
2022-09-13T04:16:27.090Z,9
2022-09-13T04:17:27.042Z,11
2022-09-13T04:19:27.060Z,10
2022-09-13T04:22:27.079Z,11
2022-09-13T04:27:27.055Z,10
2022-09-13T04:28:27.044Z,8
2022-09-13T04:29:27.058Z,10
2022-09-13T04:30:27.037Z,9
2022-09-13T04:31:27.138Z,9
2022-09-13T04:32:27.041Z,8
2022-09-13T04:33:27.042Z,9
2022-09-13T04:34:27.049Z,12
2022-09-13T04:35:27.052Z,10
2022-09-13T04:36:27.044Z,9
2022-09-13T04:37:27.046Z,10
2022-09-13T04:38:27.096Z,11
2022-09-13T04:39:27.047Z,11
2022-09-13T04:40:27.037Z,8
2022-09-13T04:41:27.043Z,12
2022-09-13T04:42:27.046Z,9
2022-09-13T04:43:27.073Z,11
2022-09-13T04:44:27.038Z,11
2022-09-13T04:45:27.052Z,9
2022-09-13T04:46:27.048Z,9
2022-09-13T04:47:27.054Z,10
2022-09-13T04:48:27.054Z,10
2022-09-13T04:49:27.096Z,8
2022-09-13T04:50:27.125Z,8
2022-09-13T04:51:27.049Z,11
2022-09-13T04:52:27.048Z,10
2022-09-13T04:53:27.054Z,12
2022-09-13T04:54:27.059Z,10
2022-09-13T04:55:27.050Z,12
2022-09-13T04:56:27.047Z,10
2022-09-13T04:57:27.053Z,9
2022-09-13T04:58:27.061Z,10
2022-09-13T04:59:27.063Z,10
2022-09-13T05:00:27.048Z,11
2022-09-13T05:01:28.017Z,14
2022-09-13T05:02:27.216Z,10
2022-09-13T05:03:27.058Z,10
2022-09-13T05:04:27.060Z,9
2022-09-13T05:05:27.096Z,10
2022-09-13T05:06:27.062Z,10
2022-09-13T05:07:27.055Z,7
2022-09-13T05:08:27.059Z,10
2022-09-13T05:09:27.066Z,10
2022-09-13T05:10:27.065Z,10
2022-09-13T05:11:27.074Z,9
2022-09-13T05:12:27.062Z,9
2022-09-13T05:13:27.067Z,9
2022-09-13T05:14:27.127Z,10
2022-09-13T05:15:27.057Z,10
2022-09-13T05:16:27.157Z,8
2022-09-13T05:17:27.062Z,10
2022-09-13T05:18:27.081Z,9
2022-09-13T05:19:27.058Z,10
2022-09-13T05:20:27.075Z,10
2022-09-13T05:21:27.051Z,10
2022-09-13T05:22:27.055Z,8
2022-09-13T05:23:27.073Z,10
2022-09-13T05:24:27.064Z,9
2022-09-13T05:25:27.071Z,11
2022-09-13T05:26:27.074Z,9
2022-09-13T05:27:27.062Z,9
2022-09-13T05:28:27.068Z,10
2022-09-13T05:30:27.099Z,11
2022-09-13T05:31:27.179Z,10
2022-09-13T05:32:27.062Z,9
2022-09-13T05:33:27.065Z,10
2022-09-13T05:34:27.069Z,10
2022-09-13T05:35:27.064Z,10
2022-09-13T05:36:27.064Z,8
2022-09-13T05:37:27.114Z,10
2022-09-13T05:38:27.079Z,10
2022-09-13T05:39:34.139Z,9
2022-09-13T05:40:27.167Z,10
2022-09-13T05:41:27.064Z,10
2022-09-13T05:42:27.076Z,9
2022-09-13T05:43:27.077Z,10
2022-09-13T05:44:27.061Z,11
2022-09-13T05:45:27.087Z,10
2022-09-13T05:46:27.163Z,8
2022-09-13T05:47:27.077Z,9
2022-09-13T05:49:27.072Z,10
2022-09-13T05:50:55.997Z,10
2022-09-13T05:51:27.068Z,10
2022-09-13T05:52:27.113Z,9
2022-09-13T05:53:27.078Z,9
2022-09-13T05:54:27.072Z,10
2022-09-13T05:55:27.105Z,10
2022-09-13T05:56:27.068Z,10
2022-09-13T05:57:27.064Z,10
2022-09-13T05:58:27.071Z,10
2022-09-13T05:59:27.068Z,8
2022-09-13T06:00:27.061Z,10
2022-09-13T06:01:27.143Z,9
2022-09-13T06:02:27.122Z,9
2022-09-13T06:03:27.071Z,9
2022-09-13T06:04:27.068Z,9
2022-09-13T06:05:31.261Z,10
2022-09-13T06:06:27.071Z,12
2022-09-13T06:07:27.074Z,10
2022-09-13T06:08:27.067Z,9
2022-09-13T06:09:27.082Z,8
2022-09-13T06:10:27.075Z,10
2022-09-13T06:11:27.073Z,10
2022-09-13T06:12:27.074Z,12
2022-09-13T06:13:27.077Z,9
2022-09-13T06:14:27.078Z,9
2022-09-13T06:15:27.075Z,11
2022-09-13T06:16:27.272Z,11
2022-09-13T06:17:27.076Z,9
2022-09-13T06:18:27.076Z,14
2022-09-13T06:19:27.092Z,13
2022-09-13T06:20:27.076Z,10
2022-09-13T06:21:29.127Z,9
2022-09-13T06:22:27.086Z,12
2022-09-13T06:23:27.077Z,14
2022-09-13T06:24:27.083Z,10
2022-09-13T06:25:27.087Z,11
2022-09-13T06:26:27.090Z,10
2022-09-13T06:27:27.695Z,9
2022-09-13T06:28:27.089Z,11
2022-09-13T06:29:27.085Z,11
2022-09-13T06:30:27.129Z,12
2022-09-13T06:31:27.411Z,12
2022-09-13T06:32:27.086Z,11
2022-09-13T06:33:27.093Z,9
2022-09-13T06:35:27.092Z,11
2022-09-13T06:36:27.107Z,10
2022-09-13T06:37:27.090Z,11
2022-09-13T06:38:27.095Z,13
2022-09-13T06:39:27.122Z,11
2022-09-13T06:40:27.145Z,10
2022-09-13T06:41:27.884Z,10
2022-09-13T06:42:27.093Z,11
2022-09-13T06:43:27.147Z,11
2022-09-13T06:44:27.089Z,11
2022-09-13T06:45:27.103Z,10
2022-09-13T06:46:27.159Z,13
2022-09-13T06:47:27.132Z,11
2022-09-13T06:48:27.085Z,12
2022-09-13T06:49:27.113Z,11
2022-09-13T06:50:27.096Z,11
2022-09-13T06:51:27.096Z,11
2022-09-13T06:52:27.139Z,11
2022-09-13T06:53:27.089Z,11
2022-09-13T06:54:27.086Z,12
2022-09-13T06:55:27.104Z,13
2022-09-13T06:56:27.090Z,11
2022-09-13T06:57:27.096Z,11
2022-09-13T06:58:27.095Z,14
2022-09-13T06:59:27.098Z,12
2022-09-13T07:00:27.097Z,14
2022-09-13T07:01:27.272Z,10
2022-09-13T07:02:27.194Z,12
2022-09-13T07:03:27.094Z,10
2022-09-13T07:04:27.091Z,11
2022-09-13T07:05:27.103Z,11
2022-09-13T07:06:27.095Z,12
2022-09-13T07:07:27.097Z,11
2022-09-13T07:08:27.145Z,12
2022-09-13T07:09:27.100Z,12
2022-09-13T07:10:27.099Z,11
2022-09-13T07:11:27.102Z,10
2022-09-13T07:12:27.101Z,10
2022-09-13T07:13:27.099Z,12
2022-09-13T07:14:27.109Z,11
2022-09-13T07:15:27.096Z,11
2022-09-13T07:16:27.094Z,10
2022-09-13T07:17:31.206Z,14
2022-09-13T07:18:27.121Z,14
2022-09-13T07:19:27.105Z,10
2022-09-13T07:20:27.107Z,14
2022-09-13T07:21:27.111Z,10
2022-09-13T07:22:27.102Z,11
2022-09-13T07:23:27.108Z,15
2022-09-13T07:24:27.102Z,12
2022-09-13T07:25:27.114Z,10
2022-09-13T07:26:27.160Z,10
2022-09-13T07:27:27.112Z,10
2022-09-13T07:28:27.542Z,12
2022-09-13T07:29:27.117Z,11
2022-09-13T07:30:27.107Z,9
2022-09-13T07:31:27.202Z,14
2022-09-13T07:32:27.107Z,13
2022-09-13T07:33:27.145Z,13
2022-09-13T07:34:27.106Z,13
2022-09-13T07:35:27.108Z,11
2022-09-13T07:36:27.112Z,12
2022-09-13T07:37:27.110Z,10
2022-09-13T07:38:27.101Z,10
2022-09-13T07:39:27.120Z,10
2022-09-13T07:40:27.170Z,10
2022-09-13T07:42:27.174Z,11
2022-09-13T07:43:27.104Z,11
2022-09-13T07:44:27.115Z,10
2022-09-13T07:45:27.110Z,10
2022-09-13T07:46:27.211Z,10
2022-09-13T07:47:27.114Z,10
2022-09-13T07:48:30.467Z,11
2022-09-13T07:49:27.225Z,11
2022-09-13T07:50:27.123Z,12
2022-09-13T07:51:27.114Z,14
2022-09-13T07:52:27.109Z,10
2022-09-13T07:53:27.117Z,9
2022-09-13T07:54:27.121Z,13
2022-09-13T07:55:27.115Z,11
2022-09-13T07:56:27.128Z,12
2022-09-13T07:57:27.114Z,13
2022-09-13T07:58:27.166Z,11
2022-09-13T07:59:30.227Z,11
2022-09-13T08:00:27.117Z,11
2022-09-13T08:01:27.171Z,11
2022-09-13T08:02:27.222Z,9
2022-09-13T08:03:27.120Z,13
2022-09-13T08:04:27.117Z,11
2022-09-13T08:05:27.123Z,10
2022-09-13T08:06:27.126Z,12
2022-09-13T08:07:27.157Z,10
2022-09-13T08:08:27.110Z,10
2022-09-13T08:09:27.117Z,12
2022-09-13T08:10:27.120Z,12
2022-09-13T08:11:27.124Z,11
2022-09-13T08:12:27.120Z,13
2022-09-13T08:13:27.115Z,12
2022-09-13T08:14:27.121Z,13
2022-09-13T08:15:27.139Z,12
2022-09-13T08:16:27.116Z,15
2022-09-13T08:17:27.122Z,13
2022-09-13T08:18:27.123Z,13
2022-09-13T08:19:27.135Z,11
2022-09-13T08:20:27.141Z,16
2022-09-13T08:22:27.129Z,12
2022-09-13T08:23:27.116Z,13
2022-09-13T08:24:27.122Z,18
2022-09-13T08:25:27.126Z,13
2022-09-13T08:26:27.122Z,15
2022-09-13T08:27:27.127Z,13
2022-09-13T08:28:27.874Z,12
2022-09-13T08:29:27.124Z,13
2022-09-13T08:30:27.126Z,13
2022-09-13T08:31:27.197Z,15
2022-09-13T08:32:27.118Z,14
2022-09-13T08:33:27.122Z,13
2022-09-13T08:34:27.133Z,11
2022-09-13T08:35:27.118Z,13
2022-09-13T08:36:27.128Z,14
2022-09-13T08:37:27.125Z,13
2022-09-13T08:38:27.135Z,13
2022-09-13T08:39:29.270Z,14
2022-09-13T08:40:27.129Z,14
2022-09-13T08:42:27.148Z,15
2022-09-13T08:43:27.142Z,14
2022-09-13T08:44:27.123Z,16
2022-09-13T08:45:27.123Z,13
2022-09-13T08:47:27.129Z,18
2022-09-13T08:48:27.128Z,15
2022-09-13T08:49:27.136Z,14
2022-09-13T08:50:27.130Z,14
2022-09-13T08:51:27.163Z,15
2022-09-13T08:52:27.129Z,15
2022-09-13T08:53:27.142Z,16
2022-09-13T08:54:27.143Z,15
2022-09-13T08:55:27.135Z,16
2022-09-13T08:56:27.150Z,15
2022-09-13T08:57:27.139Z,18
2022-09-13T08:58:27.138Z,13
2022-09-13T08:59:27.141Z,20
2022-09-13T09:00:27.137Z,16
2022-09-13T09:01:27.169Z,15
2022-09-13T09:02:27.176Z,16
2022-09-13T09:03:27.132Z,16
2022-09-13T09:04:27.192Z,15
2022-09-13T09:05:27.136Z,16
2022-09-13T09:06:27.141Z,16
2022-09-13T09:07:27.138Z,15
2022-09-13T09:08:27.139Z,18
2022-09-13T09:09:27.130Z,18
2022-09-13T09:10:27.135Z,18
2022-09-13T09:11:27.144Z,16
2022-09-13T09:12:27.141Z,18
2022-09-13T09:13:27.138Z,16
2022-09-13T09:14:27.143Z,14
2022-09-13T09:15:27.231Z,13
2022-09-13T09:16:27.145Z,17
2022-09-13T09:17:27.145Z,16
2022-09-13T09:18:27.143Z,16
2022-09-13T09:19:27.142Z,13
2022-09-13T09:20:27.144Z,14
2022-09-13T09:21:27.137Z,16
2022-09-13T09:22:27.170Z,14
2022-09-13T09:23:27.148Z,17
2022-09-13T09:24:27.143Z,14
2022-09-13T09:25:27.154Z,14
2022-09-13T09:26:27.151Z,18
2022-09-13T09:27:27.188Z,15
2022-09-13T09:28:27.141Z,15
2022-09-13T09:29:27.144Z,15
2022-09-13T09:30:27.155Z,16
2022-09-13T09:31:27.201Z,15
2022-09-13T09:32:27.148Z,14
2022-09-13T09:33:27.153Z,15
2022-09-13T09:34:27.159Z,13
2022-09-13T09:35:27.152Z,17
2022-09-13T09:36:27.149Z,13
2022-09-13T09:37:27.155Z,12
2022-09-13T09:38:27.157Z,14
2022-09-13T09:39:27.152Z,14
2022-09-13T09:40:31.552Z,15
2022-09-13T09:41:27.147Z,14
2022-09-13T09:42:27.161Z,15
2022-09-13T09:43:27.193Z,14
2022-09-13T09:44:27.154Z,14
2022-09-13T09:45:27.161Z,16
2022-09-13T09:46:27.256Z,14
2022-09-13T09:47:29.455Z,18
2022-09-13T09:48:27.159Z,16
2022-09-13T09:49:27.158Z,16
2022-09-13T09:50:27.172Z,16
2022-09-13T09:51:27.162Z,14
2022-09-13T09:52:27.215Z,13
2022-09-13T09:53:27.208Z,13
2022-09-13T09:54:27.169Z,17
2022-09-13T09:55:27.156Z,13
2022-09-13T09:56:27.160Z,18
2022-09-13T09:57:27.167Z,17
2022-09-13T09:58:27.166Z,14
2022-09-13T09:59:27.159Z,13
2022-09-13T10:00:27.179Z,15
2022-09-13T10:01:27.219Z,15
2022-09-13T10:02:27.192Z,16
2022-09-13T10:03:27.165Z,15
2022-09-13T10:04:27.157Z,13
2022-09-13T10:05:27.172Z,13
2022-09-13T10:06:27.161Z,14
2022-09-13T10:07:27.173Z,14
2022-09-13T10:08:27.175Z,12
2022-09-13T10:09:27.173Z,12
2022-09-13T10:10:27.170Z,12
2022-09-13T10:11:27.163Z,11
2022-09-13T10:12:27.169Z,12
2022-09-13T10:13:31.487Z,10
2022-09-13T10:14:27.169Z,11
2022-09-13T10:15:27.229Z,10
2022-09-13T10:16:27.235Z,10
2022-09-13T10:17:27.191Z,12
2022-09-13T10:18:43.547Z,13
2022-09-13T10:19:27.167Z,13
2022-09-13T10:20:27.175Z,10
2022-09-13T10:21:27.182Z,11
2022-09-13T10:22:27.172Z,14
2022-09-13T10:23:27.177Z,12
2022-09-13T10:24:27.209Z,16
2022-09-13T10:25:27.178Z,16
2022-09-13T10:26:27.175Z,10
2022-09-13T10:27:27.165Z,11
2022-09-13T10:28:27.171Z,11
2022-09-13T10:29:27.182Z,13
2022-09-13T10:30:27.233Z,12
2022-09-13T10:31:27.176Z,12
2022-09-13T10:32:27.173Z,12
2022-09-13T10:33:27.174Z,12
2022-09-13T10:34:27.179Z,13
2022-09-13T10:35:27.179Z,12
2022-09-13T10:36:50.626Z,14
2022-09-13T10:37:27.177Z,12
2022-09-13T10:38:27.178Z,12
2022-09-13T10:39:27.178Z,12
2022-09-13T10:40:27.230Z,14
2022-09-13T10:41:27.185Z,11
2022-09-13T10:42:27.184Z,12
2022-09-13T10:43:27.182Z,11
2022-09-13T10:44:27.187Z,12
2022-09-13T10:45:27.230Z,12
2022-09-13T10:46:27.185Z,12
2022-09-13T10:47:27.183Z,14
2022-09-13T10:48:27.179Z,12
2022-09-13T10:49:27.178Z,12
2022-09-13T10:50:27.185Z,13
2022-09-13T10:51:27.185Z,10
2022-09-13T10:52:27.193Z,11
2022-09-13T10:53:27.191Z,12
2022-09-13T10:54:27.243Z,14
2022-09-13T10:55:27.214Z,14
2022-09-13T10:56:27.198Z,13
2022-09-13T10:57:27.188Z,10
2022-09-13T10:58:27.189Z,12
2022-09-13T10:59:27.187Z,10
2022-09-13T11:00:27.201Z,13
2022-09-13T11:01:27.269Z,14
2022-09-13T11:02:27.184Z,13
2022-09-13T11:03:27.199Z,15
2022-09-13T11:04:27.224Z,12
2022-09-13T11:05:27.245Z,15
2022-09-13T11:06:27.184Z,15
2022-09-13T11:07:27.192Z,12
2022-09-13T11:08:27.192Z,14
2022-09-13T11:09:27.186Z,11
2022-09-13T11:10:27.185Z,13
2022-09-13T11:11:27.189Z,12
2022-09-13T11:12:27.191Z,13
2022-09-13T11:13:27.203Z,15
2022-09-13T11:14:27.193Z,15
2022-09-13T11:15:27.199Z,14
2022-09-13T11:16:27.273Z,13
2022-09-13T11:17:27.193Z,13
2022-09-13T11:18:27.583Z,13
2022-09-13T11:19:27.264Z,13
2022-09-13T11:20:27.200Z,13
2022-09-13T11:21:27.196Z,14
2022-09-13T11:22:27.193Z,13
2022-09-13T11:23:27.195Z,12
2022-09-13T11:24:27.193Z,16
2022-09-13T11:25:27.225Z,14
2022-09-13T11:26:27.217Z,14
2022-09-13T11:27:27.197Z,13
2022-09-13T11:28:27.268Z,12
2022-09-13T11:29:27.205Z,12
2022-09-13T11:30:30.004Z,13
2022-09-13T11:31:27.243Z,13
2022-09-13T11:32:27.203Z,13
2022-09-13T11:33:27.202Z,12
2022-09-13T11:34:27.207Z,12
2022-09-13T11:35:27.260Z,14
2022-09-13T11:36:27.204Z,14
2022-09-13T11:37:27.204Z,16
2022-09-13T11:38:27.211Z,14
2022-09-13T11:39:27.207Z,12
2022-09-13T11:40:27.245Z,14
2022-09-13T11:41:27.206Z,10
2022-09-13T11:42:27.195Z,11
2022-09-13T11:43:27.199Z,15
2022-09-13T11:44:27.204Z,14
2022-09-13T11:45:27.295Z,12
2022-09-13T11:46:27.206Z,15
2022-09-13T11:47:27.211Z,12
2022-09-13T11:48:27.200Z,13
2022-09-13T11:49:27.205Z,13
2022-09-13T11:50:27.232Z,13
2022-09-13T11:51:27.255Z,15
2022-09-13T11:52:27.212Z,15
2022-09-13T11:53:30.069Z,11
2022-09-13T11:54:27.206Z,14
2022-09-13T11:55:27.210Z,12
2022-09-13T11:56:27.223Z,12
2022-09-13T11:57:27.261Z,11
2022-09-13T11:58:27.263Z,13
2022-09-13T11:59:27.212Z,13
2022-09-13T12:00:27.212Z,12
2022-09-13T12:01:27.212Z,12
2022-09-13T12:02:27.324Z,14
2022-09-13T12:03:27.353Z,11
2022-09-13T12:04:30.540Z,13
2022-09-13T12:05:27.238Z,10
2022-09-13T12:06:27.214Z,13
2022-09-13T12:07:27.215Z,13
2022-09-13T12:08:27.214Z,12
2022-09-13T12:09:27.223Z,13
2022-09-13T12:10:27.214Z,12
2022-09-13T12:11:27.218Z,11
2022-09-13T12:12:27.224Z,13
2022-09-13T12:13:27.218Z,11
2022-09-13T12:14:27.220Z,10
2022-09-13T12:15:27.215Z,11
2022-09-13T12:16:27.305Z,13
2022-09-13T12:17:27.228Z,10
2022-09-13T12:18:27.216Z,11
2022-09-13T12:19:27.219Z,12
2022-09-13T12:20:27.240Z,11
2022-09-13T12:21:27.220Z,13
2022-09-13T12:22:30.740Z,12
2022-09-13T12:23:27.225Z,14
2022-09-13T12:24:27.509Z,13
2022-09-13T12:25:27.231Z,13
2022-09-13T12:26:27.225Z,14
2022-09-13T12:27:27.224Z,14
2022-09-13T12:28:27.251Z,12
2022-09-13T12:29:27.223Z,13
2022-09-13T12:30:27.221Z,17
2022-09-13T12:31:27.295Z,13
2022-09-13T12:32:27.224Z,12
2022-09-13T12:33:27.228Z,14
2022-09-13T12:34:27.232Z,15
2022-09-13T12:35:27.232Z,12
2022-09-13T12:36:27.236Z,13
2022-09-13T12:37:27.269Z,13
2022-09-13T12:38:31.314Z,15
2022-09-13T12:39:27.243Z,13
2022-09-13T12:40:27.235Z,13
2022-09-13T12:41:27.278Z,13
2022-09-13T12:42:27.239Z,13
2022-09-13T12:43:27.233Z,12
2022-09-13T12:44:31.665Z,15
2022-09-13T12:45:27.246Z,15
2022-09-13T12:46:27.223Z,14
2022-09-13T12:47:27.232Z,13
2022-09-13T12:48:27.273Z,13
2022-09-13T12:49:27.239Z,13
2022-09-13T12:50:42.905Z,12
2022-09-13T12:51:27.231Z,12
2022-09-13T12:52:27.235Z,14
2022-09-13T12:53:27.268Z,14
2022-09-13T12:54:27.237Z,13
2022-09-13T12:55:46.094Z,16
2022-09-13T12:56:27.231Z,12
2022-09-13T12:57:27.246Z,13
2022-09-13T12:58:27.253Z,15
2022-09-13T12:59:27.276Z,15
2022-09-13T13:00:27.242Z,14
2022-09-13T13:01:27.392Z,14
2022-09-13T13:02:27.243Z,13
2022-09-13T13:03:27.239Z,12
2022-09-13T13:04:27.318Z,17
2022-09-13T13:05:27.243Z,17
2022-09-13T13:06:27.247Z,13
2022-09-13T13:07:27.248Z,13
2022-09-13T13:08:27.244Z,13
2022-09-13T13:09:28.921Z,14
2022-09-13T13:10:27.238Z,13
2022-09-13T13:11:27.243Z,13
2022-09-13T13:12:27.247Z,14
2022-09-13T13:13:27.258Z,16
2022-09-13T13:14:27.245Z,14
2022-09-13T13:15:27.266Z,14
2022-09-13T13:16:27.268Z,14
2022-09-13T13:17:27.257Z,15
2022-09-13T13:18:27.240Z,16
2022-09-13T13:19:27.244Z,14
2022-09-13T13:20:27.254Z,13
2022-09-13T13:21:27.246Z,12
2022-09-13T13:22:27.253Z,12
2022-09-13T13:23:27.274Z,14
2022-09-13T13:24:27.253Z,12
2022-09-13T13:25:27.247Z,14
2022-09-13T13:26:27.255Z,13
2022-09-13T13:27:27.324Z,11
2022-09-13T13:28:27.254Z,11
2022-09-13T13:29:27.256Z,11
2022-09-13T13:30:27.617Z,10
2022-09-13T13:31:27.348Z,12
2022-09-13T13:32:27.251Z,13
2022-09-13T13:33:27.259Z,13
2022-09-13T13:34:27.298Z,12
2022-09-13T13:35:27.250Z,12
2022-09-13T13:36:27.261Z,12
2022-09-13T13:37:27.274Z,13
2022-09-13T13:39:27.252Z,12
2022-09-13T13:40:27.340Z,12
2022-09-13T13:41:27.256Z,17
2022-09-13T13:42:27.271Z,17
2022-09-13T13:43:27.262Z,13
2022-09-13T13:44:27.284Z,12
2022-09-13T13:45:27.297Z,14
2022-09-13T13:46:27.259Z,15
2022-09-13T13:47:27.260Z,13
2022-09-13T13:48:27.271Z,14
2022-09-13T13:49:27.256Z,12
2022-09-13T13:50:27.262Z,12
2022-09-13T13:51:27.261Z,12
2022-09-13T13:52:27.269Z,13
2022-09-13T13:53:27.265Z,13
2022-09-13T13:54:27.261Z,11
2022-09-13T13:55:27.258Z,15
2022-09-13T13:56:27.262Z,12
2022-09-13T13:57:27.265Z,11
2022-09-13T13:58:27.274Z,11
2022-09-13T13:59:27.266Z,10
2022-09-13T14:00:27.258Z,11
2022-09-13T14:01:27.287Z,11
2022-09-13T14:02:27.265Z,15
2022-09-13T14:03:27.333Z,12
2022-09-13T14:04:27.297Z,11
2022-09-13T14:05:27.272Z,13
2022-09-13T14:06:27.314Z,12
2022-09-13T14:07:27.264Z,12
2022-09-13T14:08:27.272Z,12
2022-09-13T14:09:32.997Z,13
2022-09-13T14:10:27.272Z,12
2022-09-13T14:11:27.268Z,13
2022-09-13T14:12:27.269Z,14
2022-09-13T14:13:27.278Z,12
2022-09-13T14:14:27.268Z,13
2022-09-13T14:15:27.272Z,12
2022-09-13T14:16:31.071Z,13
2022-09-13T14:17:27.330Z,12
2022-09-13T14:19:27.287Z,14
2022-09-13T14:20:27.276Z,11
2022-09-13T14:21:27.277Z,10
2022-09-13T14:22:27.277Z,13
2022-09-13T14:23:27.280Z,13
2022-09-13T14:24:27.285Z,12
2022-09-13T14:25:27.272Z,12
2022-09-13T14:26:27.283Z,14
2022-09-13T14:27:27.274Z,14
2022-09-13T14:28:27.275Z,14
2022-09-13T14:29:27.279Z,12
2022-09-13T14:30:27.279Z,12
2022-09-13T14:31:27.308Z,12
2022-09-13T14:32:31.584Z,12
2022-09-13T14:33:27.272Z,13
2022-09-13T14:34:27.274Z,12
2022-09-13T14:35:27.302Z,14
2022-09-13T14:36:27.364Z,11
2022-09-13T14:37:27.287Z,11
2022-09-13T14:38:27.282Z,13
2022-09-13T14:39:27.279Z,13
2022-09-13T14:40:27.404Z,13
2022-09-13T14:41:27.283Z,11
2022-09-13T14:42:27.282Z,12
2022-09-13T14:43:27.284Z,12
2022-09-13T14:44:28.961Z,12
2022-09-13T14:45:27.276Z,12
2022-09-13T14:46:27.363Z,14
2022-09-13T14:47:27.283Z,14
2022-09-13T14:48:27.289Z,13
2022-09-13T14:49:27.285Z,13
2022-09-13T14:50:27.288Z,12
2022-09-13T14:51:27.289Z,13
2022-09-13T14:52:27.284Z,14
2022-09-13T14:53:27.297Z,15
2022-09-13T14:54:27.316Z,14
2022-09-13T14:55:27.296Z,13
2022-09-13T14:56:27.314Z,13
2022-09-13T14:57:27.297Z,14
2022-09-13T14:58:27.293Z,17
2022-09-13T14:59:27.388Z,12
2022-09-13T15:00:27.367Z,12
2022-09-13T15:01:27.289Z,12
2022-09-13T15:02:27.888Z,13
2022-09-13T15:03:27.357Z,14
2022-09-13T15:04:27.333Z,13
2022-09-13T15:05:27.294Z,11
2022-09-13T15:06:27.297Z,15
2022-09-13T15:07:27.294Z,12
2022-09-13T15:08:27.288Z,13
2022-09-13T15:09:27.297Z,15
2022-09-13T15:10:27.305Z,12
2022-09-13T15:11:27.296Z,14
2022-09-13T15:12:27.302Z,14
2022-09-13T15:13:27.296Z,11
2022-09-13T15:14:27.292Z,16
2022-09-13T15:15:27.316Z,13
2022-09-13T15:16:27.375Z,11
2022-09-13T15:17:27.295Z,11
2022-09-13T15:18:27.301Z,11
2022-09-13T15:19:27.321Z,12
2022-09-13T15:20:27.302Z,16
2022-09-13T15:21:27.307Z,14
2022-09-13T15:22:27.332Z,14
2022-09-13T15:23:27.301Z,12
2022-09-13T15:24:27.297Z,11
2022-09-13T15:25:27.302Z,13
2022-09-13T15:26:27.304Z,12
2022-09-13T15:27:27.298Z,16
2022-09-13T15:28:27.296Z,16
2022-09-13T15:29:27.306Z,14
2022-09-13T15:30:27.303Z,16
2022-09-13T15:31:27.989Z,11
2022-09-13T15:32:27.301Z,12
2022-09-13T15:33:27.301Z,12
2022-09-13T15:34:27.414Z,17
2022-09-13T15:35:27.314Z,13
2022-09-13T15:36:27.318Z,14
2022-09-13T15:37:27.303Z,13
2022-09-13T15:38:27.302Z,15
2022-09-13T15:39:27.302Z,14
2022-09-13T15:40:27.394Z,15
2022-09-13T15:41:27.301Z,12
2022-09-13T15:42:27.311Z,14
2022-09-13T15:43:27.313Z,15
2022-09-13T15:44:27.300Z,12
2022-09-13T15:46:27.346Z,13
2022-09-13T15:47:27.384Z,14
2022-09-13T15:48:27.309Z,14
2022-09-13T15:49:27.377Z,13
2022-09-13T15:50:27.309Z,13
2022-09-13T15:51:27.312Z,13
2022-09-13T15:52:27.315Z,13
2022-09-13T15:53:27.334Z,13
2022-09-13T15:54:27.310Z,14
2022-09-13T15:55:27.307Z,13
2022-09-13T15:56:27.315Z,14
2022-09-13T15:57:27.316Z,13
2022-09-13T15:58:27.308Z,10
2022-09-13T15:59:27.312Z,13
2022-09-13T16:00:27.393Z,14
2022-09-13T16:01:27.323Z,17
2022-09-13T16:03:27.314Z,15
2022-09-13T16:05:27.336Z,12
2022-09-13T16:06:27.315Z,13
2022-09-13T16:07:27.326Z,13
2022-09-13T16:08:27.323Z,17
2022-09-13T16:09:27.323Z,13
2022-09-13T16:10:27.317Z,14
2022-09-13T16:11:27.327Z,12
2022-09-13T16:12:27.325Z,13
2022-09-13T16:13:27.317Z,13
2022-09-13T16:14:27.393Z,13
2022-09-13T16:15:27.317Z,13
2022-09-13T16:16:27.439Z,11
2022-09-13T16:17:27.316Z,12
2022-09-13T16:19:27.325Z,13
2022-09-13T16:20:27.338Z,13
2022-09-13T16:21:27.331Z,15
2022-09-13T16:22:27.324Z,13
2022-09-13T16:23:27.322Z,14
2022-09-13T16:24:27.326Z,14
2022-09-13T16:25:27.323Z,12
2022-09-13T16:26:27.326Z,12
2022-09-13T16:27:30.698Z,12
2022-09-13T16:28:27.323Z,12
2022-09-13T16:29:27.329Z,13
2022-09-13T16:30:27.318Z,10
2022-09-13T16:31:27.384Z,12
2022-09-13T16:32:27.323Z,13
2022-09-13T16:33:27.325Z,15
2022-09-13T16:34:27.323Z,13
2022-09-13T16:35:27.323Z,15
2022-09-13T16:36:27.362Z,14
2022-09-13T16:37:27.333Z,11
2022-09-13T16:38:27.329Z,12
2022-09-13T16:39:27.398Z,15
2022-09-13T16:40:27.369Z,15
2022-09-13T16:41:27.327Z,13
2022-09-13T16:42:27.352Z,14
2022-09-13T16:43:27.331Z,15
2022-09-13T16:44:27.333Z,14
2022-09-13T16:45:27.328Z,13
2022-09-13T16:46:27.429Z,16
2022-09-13T16:47:27.331Z,16
2022-09-13T16:48:27.336Z,15
2022-09-13T16:49:27.337Z,13
2022-09-13T16:50:27.334Z,13
2022-09-13T16:51:27.329Z,12
2022-09-13T16:52:27.347Z,12
2022-09-13T16:53:27.347Z,12
2022-09-13T16:54:27.353Z,14
2022-09-13T16:55:27.394Z,15
2022-09-13T16:56:27.336Z,15
2022-09-13T16:57:27.337Z,12
2022-09-13T16:58:27.338Z,13
2022-09-13T16:59:27.338Z,13
2022-09-13T17:00:27.340Z,11
2022-09-13T17:01:27.459Z,11
2022-09-13T17:03:27.338Z,13
2022-09-13T17:04:27.346Z,10
2022-09-13T17:05:27.346Z,11
2022-09-13T17:06:27.420Z,9
2022-09-13T17:07:27.360Z,9
2022-09-13T17:08:27.341Z,8
2022-09-13T17:09:27.343Z,11
2022-09-13T17:10:27.341Z,12
2022-09-13T17:11:27.344Z,10
2022-09-13T17:12:27.350Z,10
2022-09-13T17:13:27.362Z,10
2022-09-13T17:14:27.346Z,11
2022-09-13T17:15:27.352Z,8
2022-09-13T17:16:27.416Z,8
2022-09-13T17:17:27.359Z,10
2022-09-13T17:18:27.341Z,9
2022-09-13T17:19:27.364Z,10
2022-09-13T17:20:27.350Z,11
2022-09-13T17:21:27.352Z,10
2022-09-13T17:22:27.353Z,10
2022-09-13T17:23:27.350Z,9
2022-09-13T17:24:27.378Z,11
2022-09-13T17:25:27.350Z,7
2022-09-13T17:26:27.351Z,10
2022-09-13T17:27:27.358Z,9
2022-09-13T17:29:27.347Z,10
2022-09-13T17:30:27.351Z,10
2022-09-13T17:31:27.467Z,8
2022-09-13T17:32:27.366Z,8
2022-09-13T17:33:27.408Z,10
2022-09-13T17:34:27.353Z,10
2022-09-13T17:35:27.354Z,8
2022-09-13T17:36:27.356Z,9
2022-09-13T17:37:27.353Z,9
2022-09-13T17:38:27.469Z,10
2022-09-13T17:39:27.358Z,9
2022-09-13T17:40:27.414Z,7
2022-09-13T17:41:27.358Z,9
2022-09-13T17:42:27.355Z,6
2022-09-13T17:43:27.369Z,8
2022-09-13T17:44:27.356Z,10
2022-09-13T17:45:27.359Z,8
2022-09-13T17:46:27.422Z,8
2022-09-13T17:47:27.369Z,8
2022-09-13T17:48:27.358Z,8
2022-09-13T17:49:27.402Z,10
2022-09-13T17:50:27.368Z,10
2022-09-13T17:51:27.364Z,9
2022-09-13T17:52:30.512Z,9
2022-09-13T17:53:27.367Z,9
2022-09-13T17:54:27.368Z,11
2022-09-13T17:55:27.367Z,12
2022-09-13T17:56:27.358Z,11
2022-09-13T17:57:27.371Z,8
2022-09-13T17:58:27.362Z,7
2022-09-13T17:59:27.364Z,10
2022-09-13T18:00:27.409Z,9
2022-09-13T18:01:27.436Z,9
2022-09-13T18:02:27.421Z,7
2022-09-13T18:03:27.374Z,8
2022-09-13T18:04:27.359Z,12
2022-09-13T18:05:27.367Z,10
2022-09-13T18:06:27.370Z,8
2022-09-13T18:07:27.367Z,9
2022-09-13T18:08:27.372Z,8
2022-09-13T18:09:27.429Z,11
2022-09-13T18:10:53.089Z,10
2022-09-13T18:11:27.375Z,9
2022-09-13T18:12:27.368Z,8
2022-09-13T18:13:27.372Z,8
2022-09-13T18:14:27.389Z,9
2022-09-13T18:15:27.370Z,8
2022-09-13T18:16:27.490Z,9
2022-09-13T18:17:27.374Z,7
2022-09-13T18:18:27.427Z,12
2022-09-13T18:19:44.866Z,12
2022-09-13T18:20:27.378Z,9
2022-09-13T18:21:27.371Z,9
2022-09-13T18:22:27.373Z,10
2022-09-13T18:23:27.384Z,9
2022-09-13T18:24:27.378Z,8
2022-09-13T18:25:27.378Z,6
2022-09-13T18:26:27.374Z,9
2022-09-13T18:27:27.414Z,8
2022-09-13T18:28:27.390Z,8
2022-09-13T18:29:27.374Z,10
2022-09-13T18:30:27.380Z,10
2022-09-13T18:31:27.481Z,7
2022-09-13T18:32:27.377Z,9
2022-09-13T18:33:27.380Z,10
2022-09-13T18:34:27.936Z,16
2022-09-13T18:35:27.383Z,9
2022-09-13T18:36:27.377Z,10
2022-09-13T18:37:27.386Z,9
2022-09-13T18:38:27.381Z,10
2022-09-13T18:39:27.382Z,9
2022-09-13T18:40:27.626Z,7
2022-09-13T18:41:27.387Z,9
2022-09-13T18:42:31.430Z,11
2022-09-13T18:43:27.386Z,8
2022-09-13T18:44:27.387Z,9